Latest Coastal Weather Observations for Cape Borda

IDS60701

Issued at 9:01 am CST Saturday 1 August 2015 (issued every 10 minutes, with the page automatically refreshed every 10 minutes)

About coastal observations | Map of coastal stations | Coastal observations for SA | Marine services | Other Formats
Station Details ID: 022823 Name: CAPE BORDA Lat: -35.75 Lon: 136.60 Height: 158.0 m
Data from the previous 72 hours. | See also: Recent months at Cape Borda
Date/Time
CST
Temp

°C
Wind Pressure Rain
since 9am
mm
Weather Cloud Vis
km
Sea
Height
m
Swell
Dir
 
Speed
knots
Gust
knots
hPa Trend Height
m
Period
s
Dir
01/09:00am 8.7 S 8 12 1016.9 - 1.6 - - - - - - -
01/08:30am 8.6 S 10 15 1016.2 - 1.6 - - - - - - -
01/08:00am 8.6 S 8 12 1015.9 - 1.6 - - - - - - -
01/07:30am 8.7 S 10 13 1015.6 - 1.6 - - - - - - -
01/07:00am 9.2 SSW 10 15 1015.7 - 1.6 - - - - - - -
01/06:30am 9.0 SSW 10 14 1015.2 - 1.6 - - - - - - -
01/06:00am 9.0 S 11 16 1014.3 - 1.6 - - - - - - -
01/05:30am 9.2 S 13 19 1013.8 - 1.6 - - - - - - -
01/05:00am 9.2 SSW 13 18 1013.4 - 1.6 - - - - - - -
01/04:30am 9.4 SSW 15 22 1013.3 - 1.6 - - - - - - -
01/04:00am 9.3 SSW 14 19 1013.0 - 1.6 - - - - - - -
01/03:30am 9.5 SSW 17 23 1012.4 - 1.4 - - - - - - -
01/03:19am 9.7 S 17 27 1012.1 - 1.4 - - - - - - -
01/03:00am 10.0 SSW 18 27 1012.4 - 1.4 - - - - - - -
01/02:39am 11.1 SW 18 29 1012.1 - 1.4 - - - - - - -
01/02:30am 11.3 SW 18 25 1012.1 - 1.4 - - - - - - -
01/02:18am 11.0 SW 17 27 1012.1 - 1.4 - - - - - - -
01/02:00am 10.7 SW 18 26 1012.0 - 1.4 - - - - - - -
01/01:30am 10.4 SW 15 22 1011.6 - 1.4 - - - - - - -
01/01:00am 10.3 SSW 13 17 1011.7 - 1.4 - - - - - - -
01/12:30am 10.6 SSW 18 24 1011.4 - 1.0 - - - - - - -
01/12:27am 10.6 SSW 19 24 1011.3 - 1.0 - - - - - - -
01/12:06am 12.0 SW 21 25 1010.9 - 0.4 - - - - - - -
01/12:05am 12.2 W 22 26 1010.8 - 0.4 - - - - - - -
01/12:03am 13.2 NW 19 29 1010.6 - 0.2 - - - - - - -
01/12:00am 13.4 NW 19 26 1010.4 - 0.0 - - - - - - -
 
Date/Time
CST
Temp

°C
Wind Pressure Rain
since 9am
mm
Weather Cloud Vis
km
Sea
Height
m
Swell
Dir
 
Speed
knots
Gust
knots
hPa Trend Height
m
Period
s
Dir
31/11:30pm 13.4 NW 21 29 1010.5 - 0.0 - - - - - - -
31/11:00pm 13.0 NW 19 27 1010.8 - 0.0 - - - - - - -
31/10:30pm 13.1 NNW 18 26 1011.1 - 0.0 - - - - - - -
31/10:00pm 13.1 NNW 17 24 1011.1 - 0.0 - - - - - - -
31/09:30pm 13.2 NNW 15 24 1011.2 - 0.0 - - - - - - -
31/09:00pm 13.5 NNW 17 23 1011.5 - 0.0 - - - - - - -
31/08:30pm 13.4 NNW 15 21 1011.6 - 0.0 - - - - - - -
31/08:00pm 13.4 NNW 13 18 1012.1 - 0.0 - - - - - - -
31/07:30pm 13.4 NNW 15 21 1012.3 - 0.0 - - - - - - -
31/07:00pm 13.4 NNW 17 23 1012.3 - 0.0 - - - - - - -
31/06:30pm 13.3 NNW 15 21 1012.2 - 0.0 - - - - - - -
31/06:00pm 13.3 NNW 14 21 1012.6 - 0.0 - - - - - - -
31/05:30pm 12.9 N 12 16 1012.5 - 0.0 - - - - - - -
31/05:00pm 12.8 NNW 13 19 1012.8 - 0.0 - - - - - - -
31/04:30pm 12.5 N 13 18 1012.9 - 0.0 - - - - - - -
31/04:00pm 12.4 N 13 19 1013.2 - 0.0 - - - - - - -
31/03:30pm 12.4 N 13 19 1013.6 - 0.0 - - - - - - -
31/03:00pm 12.4 N 13 17 1014.0 F 0.0 Fine Cloudy 15 1 5.0 8 SW
31/02:30pm 12.5 N 12 17 1014.3 - 0.0 - - - - - - -
31/02:00pm 12.4 N 15 21 1015.2 - 0.0 - - - - - - -
31/01:30pm 12.2 N 15 21 1015.4 - 0.0 - - - - - - -
31/01:00pm 12.3 N 15 21 1016.0 - 0.0 - - - - - - -
31/12:30pm 12.4 N 14 22 1016.7 - 0.0 - - - - - - -
31/12:00pm 12.4 NNW 14 19 1017.4 - 0.0 - - - - - - -
31/11:30am 11.9 NNW 14 19 1017.8 - 0.0 - - - - - - -
31/11:00am 11.7 N 14 20 1018.2 - 0.0 - - - - - - -
31/10:30am 10.7 N 12 17 1018.7 - 0.0 - - - - - - -
31/10:00am 10.5 N 13 18 1018.9 - 0.0 - - - - - - -
31/09:30am 10.4 N 15 21 1019.1 - 0.0 - - - - - - -
31/09:00am 10.5 N 11 15 1019.5 F 1.4 Fine Mostly cloudy 12 1 5.0 8 SW
31/08:30am 10.1 N 11 16 1019.7 - 1.4 - - - - - - -
31/08:00am 9.8 N 9 15 1019.9 - 1.4 - - - - - - -
31/07:30am 8.8 NE 8 11 1019.8 - 1.4 - - - - - - -
31/07:00am 8.0 ENE 7 10 1019.7 - 1.4 - - - - - - -
31/06:30am 7.0 ENE 6 7 1020.0 - 1.4 - - - - - - -
31/06:00am 6.2 E 7 7 1020.3 - 1.4 - - - - - - -
31/05:30am 6.3 E 6 7 1020.3 - 1.4 - - - - - - -
31/05:00am 6.0 ESE 6 8 1020.4 - 1.4 - - - - - - -
31/04:30am 6.2 ESE 8 8 1020.6 - 1.4 - - - - - - -
31/04:00am 5.8 ESE 7 8 1020.6 - 1.4 - - - - - - -
31/03:30am 5.8 SE 8 8 1020.8 - 1.4 - - - - - - -
31/03:00am 5.6 SE 6 7 1021.4 - 1.4 - - - - - - -
31/02:30am 6.7 ESE 7 8 1021.6 - 1.4 - - - - - - -
31/02:00am 6.9 ESE 7 7 1021.8 - 1.4 - - - - - - -
31/01:30am 7.3 ESE 7 8 1021.8 - 1.4 - - - - - - -
31/01:00am 7.9 ESE 5 7 1022.2 - 1.4 - - - - - - -
31/12:30am 7.7 SE 5 6 1022.4 - 1.4 - - - - - - -
31/12:00am 7.6 SSE 5 7 1022.7 - 1.4 - - - - - - -
 
Date/Time
CST
Temp

°C
Wind Pressure Rain
since 9am
mm
Weather Cloud Vis
km
Sea
Height
m
Swell
Dir
 
Speed
knots
Gust
knots
hPa Trend Height
m
Period
s
Dir
30/11:30pm 8.1 SSE 6 8 1022.5 - 1.4 - - - - - - -
30/11:00pm 8.8 S 6 8 1022.6 - 1.4 - - - - - - -
30/10:30pm 8.2 SSE 7 8 1022.7 - 1.4 - - - - - - -
30/10:00pm 8.3 SSE 6 7 1022.5 - 1.4 - - - - - - -
30/09:30pm 8.1 S 5 6 1022.4 - 1.4 - - - - - - -
30/09:00pm 7.1 S 7 8 1022.4 - 1.4 - - - - - - -
30/08:30pm 7.7 S 8 13 1022.0 - 1.4 - - - - - - -
30/08:00pm 8.5 S 8 11 1021.5 - 1.4 - - - - - - -
30/07:30pm 9.0 S 9 11 1021.0 - 1.4 - - - - - - -
30/07:00pm 9.3 S 10 14 1020.2 - 1.4 - - - - - - -
30/06:30pm 9.1 S 12 16 1019.8 - 1.4 - - - - - - -
30/06:00pm 9.7 SSW 14 19 1019.4 - 1.4 - - - - - - -
30/05:30pm 10.5 SSW 18 24 1018.8 - 1.4 - - - - - - -
30/05:00pm 11.2 SSW 19 26 1018.5 - 1.4 - - - - - - -
30/04:30pm 11.6 SW 18 25 1018.0 - 1.4 - - - - - - -
30/04:00pm 11.5 SSW 17 25 1017.6 - 1.4 - - - - - - -
30/03:30pm 11.5 SSW 18 26 1017.2 - 1.4 - - - - - - -
30/03:00pm 11.4 SSW 17 26 1017.1 - 1.4 - - - - - - -
30/02:30pm 11.9 SW 19 27 1016.5 - 1.4 - - - - - - -
30/02:23pm 12.9 SW 20 25 1016.5 - 1.0 - - - - - - -
30/02:00pm 14.0 W 18 25 1016.4 - 1.0 - - - - - - -
30/01:30pm 14.6 W 19 25 1016.3 - 1.0 - - - - - - -
30/01:00pm 14.8 W 18 24 1016.3 - 1.0 - - - - - - -
30/12:30pm 14.4 W 19 29 1016.5 - 1.0 - - - - - - -
30/12:29pm 14.5 W 19 29 1016.5 - 1.0 - - - - - - -
30/12:00pm 14.3 W 17 24 1016.8 - 1.0 - - - - - - -
30/11:30am 14.5 W 16 23 1016.5 - 1.0 - - - - - - -
30/11:00am 12.9 W 18 25 1016.3 - 1.0 - - - - - - -
30/10:30am 13.5 WNW 18 26 1016.4 - 0.0 - - - - - - -
30/10:00am 14.3 WNW 15 21 1016.1 - 0.0 - - - - - - -
30/09:30am 14.0 NW 19 27 1015.9 - 0.0 - - - - - - -
30/09:00am 13.8 NW 17 24 1015.2 - 0.0 - - - - - - -
30/08:36am 13.3 NW 15 25 1015.1 - 0.0 - - - - - - -
30/08:30am 13.4 NW 16 23 1015.2 - 0.0 - - - - - - -
30/08:00am 13.3 NW 18 25 1015.5 - 0.0 - - - - - - -
30/07:30am 13.5 NNW 16 25 1015.4 - 0.0 - - - - - - -
30/07:24am 13.4 NNW 15 25 1015.4 - 0.0 - - - - - - -
30/07:00am 13.3 N 15 22 1015.3 - 0.0 - - - - - - -
30/06:30am 12.6 N 15 20 1015.3 - 0.0 - - - - - - -
30/06:00am 11.9 N 16 23 1015.6 - 0.0 - - - - - - -
30/05:30am 12.0 N 17 24 1015.7 - 0.0 - - - - - - -
30/05:00am 12.5 N 17 26 1015.3 - 0.0 - - - - - - -
30/04:30am 12.4 N 17 26 1015.2 - 0.0 - - - - - - -
30/04:00am 12.1 N 13 20 1015.6 - 0.0 - - - - - - -
30/03:30am 12.4 N 15 23 1017.0 - 0.0 - - - - - - -
30/03:00am 12.7 N 15 22 1018.1 - 0.0 - - - - - - -
30/02:30am 12.8 N 15 20 1017.7 - 0.0 - - - - - - -
30/02:00am 12.7 N 13 21 1018.1 - 0.0 - - - - - - -
30/01:30am 12.7 N 16 23 1018.7 - 0.0 - - - - - - -
30/01:00am 12.7 N 17 23 1019.3 - 0.0 - - - - - - -
30/12:30am 12.5 N 16 23 1019.7 - 0.0 - - - - - - -
30/12:00am 12.4 N 14 20 1020.4 - 0.0 - - - - - - -
 
Date/Time
CST
Temp

°C
Wind Pressure Rain
since 9am
mm
Weather Cloud Vis
km
Sea
Height
m
Swell
Dir
 
Speed
knots
Gust
knots
hPa Trend Height
m
Period
s
Dir
29/11:30pm 12.5 N 16 24 1020.3 - 0.0 - - - - - - -
29/11:11pm 12.7 N 16 26 1020.2 - 0.0 - - - - - - -
29/11:00pm 12.7 N 15 21 1020.3 - 0.0 - - - - - - -
29/10:50pm 12.8 N 15 25 1020.5 - 0.0 - - - - - - -
29/10:30pm 12.8 N 16 22 1020.8 - 0.0 - - - - - - -
29/10:00pm 12.9 N 15 22 1021.2 - 0.0 - - - - - - -
29/09:30pm 12.8 N 16 24 1021.4 - 0.0 - - - - - - -
29/09:00pm 12.9 N 16 21 1021.9 - 0.0 - - - - - - -
29/08:30pm 12.6 N 16 22 1021.7 - 0.0 - - - - - - -
29/08:00pm 12.8 N 16 24 1021.8 - 0.0 - - - - - - -
29/07:30pm 12.4 N 14 22 1021.9 - 0.0 - - - - - - -
29/07:00pm 12.3 N 16 22 1021.9 - 0.0 - - - - - - -
29/06:30pm 12.0 N 17 23 1022.1 - 0.0 - - - - - - -
29/06:00pm 11.5 N 17 23 1022.3 - 0.0 - - - - - - -
29/05:30pm 11.3 N 14 19 1022.1 - 0.0 - - - - - - -
29/05:00pm 11.5 N 16 23 1022.1 - 0.0 - - - - - - -
29/04:30pm 11.6 N 12 17 1022.4 - 0.0 - - - - - - -
29/04:00pm 11.4 N 15 24 1022.5 - 0.0 - - - - - - -
29/03:30pm 11.6 N 14 21 1022.7 - 0.0 - - - - - - -
29/03:00pm 12.0 N 16 25 1023.1 - 0.0 - - - - - - -
29/02:30pm 12.1 N 16 24 1023.1 - 0.0 - - - - - - -
29/02:00pm 12.5 N 17 24 1023.5 - 0.0 - - - - - - -
29/01:33pm 12.7 N 17 28 1023.9 - 0.0 - - - - - - -
29/01:30pm 12.9 N 17 25 1023.9 - 0.0 - - - - - - -
29/01:01pm 12.1 N 17 27 1024.7 - 0.0 - - - - - - -
29/01:00pm 12.1 N 17 24 1024.8 - 0.0 - - - - - - -
29/12:47pm 12.3 N 16 26 1024.9 - 0.0 - - - - - - -
29/12:30pm 12.2 N 17 25 1025.1 - 0.0 - - - - - - -
29/12:24pm 12.2 N 17 27 1025.3 - 0.0 - - - - - - -
29/12:00pm 12.3 N 18 25 1026.3 - 0.0 - - - - - - -
29/11:30am 12.4 N 18 29 1026.9 - 0.0 - - - - - - -
29/11:24am 12.3 N 19 29 1026.9 - 0.0 - - - - - - -
29/11:00am 12.4 N 19 27 1026.9 - 0.0 - - - - - - -
29/10:30am 12.0 N 18 24 1027.6 - 0.0 - - - - - - -
29/10:00am 11.9 N 17 27 1027.7 - 0.0 - - - - - - -
29/09:48am 12.0 N 16 26 1027.8 - 0.0 - - - - - - -
29/09:30am 11.8 N 15 22 1028.0 - 0.0 - - - - - - -

Other Formats:

Comma delimited format used in spreadsheet applications
http://www.bom.gov.au/fwo/IDS60701/IDS60701.95805.axf

JavaScript Object Notation format (JSON) in row-major order
http://www.bom.gov.au/fwo/IDS60701/IDS60701.95805.json